sensor_id;sensor_type;location;lat;lon;timestamp;P1;durP1;ratioP1;P2;durP2;ratioP2
54177;SDS011;40085;53.004;6.770;2022-07-12T00:01:51;1.75;;;1.10;;
54177;SDS011;40085;53.004;6.770;2022-07-12T00:04:17;1.42;;;0.90;;
54177;SDS011;40085;53.004;6.770;2022-07-12T00:06:42;3.55;;;1.65;;
54177;SDS011;40085;53.004;6.770;2022-07-12T00:09:08;2.75;;;1.38;;
54177;SDS011;40085;53.004;6.770;2022-07-12T00:11:34;1.88;;;1.10;;
54177;SDS011;40085;53.004;6.770;2022-07-12T00:14:01;3.85;;;1.58;;
54177;SDS011;40085;53.004;6.770;2022-07-12T00:16:28;1.88;;;1.20;;
54177;SDS011;40085;53.004;6.770;2022-07-12T00:18:53;1.45;;;1.00;;
54177;SDS011;40085;53.004;6.770;2022-07-12T00:21:19;2.80;;;1.13;;
54177;SDS011;40085;53.004;6.770;2022-07-12T00:23:45;1.50;;;1.10;;
54177;SDS011;40085;53.004;6.770;2022-07-12T00:26:11;1.48;;;1.05;;
54177;SDS011;40085;53.004;6.770;2022-07-12T00:28:36;3.25;;;1.23;;
54177;SDS011;40085;53.004;6.770;2022-07-12T00:31:02;1.63;;;1.00;;
54177;SDS011;40085;53.004;6.770;2022-07-12T00:33:28;1.83;;;1.05;;
54177;SDS011;40085;53.004;6.770;2022-07-12T00:35:54;1.38;;;1.00;;
54177;SDS011;40085;53.004;6.770;2022-07-12T00:38:20;2.10;;;1.17;;
54177;SDS011;40085;53.004;6.770;2022-07-12T00:40:46;3.13;;;1.40;;
54177;SDS011;40085;53.004;6.770;2022-07-12T00:43:12;3.40;;;1.45;;
54177;SDS011;40085;53.004;6.770;2022-07-12T00:45:37;2.22;;;1.05;;
54177;SDS011;40085;53.004;6.770;2022-07-12T00:48:03;2.10;;;1.42;;
54177;SDS011;40085;53.004;6.770;2022-07-12T00:50:29;2.78;;;1.42;;
54177;SDS011;40085;53.004;6.770;2022-07-12T00:52:55;1.48;;;1.10;;
54177;SDS011;40085;53.004;6.770;2022-07-12T00:55:22;3.95;;;1.13;;
54177;SDS011;40085;53.004;6.770;2022-07-12T00:57:51;1.83;;;1.00;;
54177;SDS011;40085;53.004;6.770;2022-07-12T01:00:27;1.90;;;1.25;;
54177;SDS011;40085;53.004;6.770;2022-07-12T01:02:55;2.90;;;1.20;;
54177;SDS011;40085;53.004;6.770;2022-07-12T01:05:22;4.03;;;1.60;;
54177;SDS011;40085;53.004;6.770;2022-07-12T01:07:49;1.70;;;1.30;;
54177;SDS011;40085;53.004;6.770;2022-07-12T01:10:15;3.10;;;1.60;;
54177;SDS011;40085;53.004;6.770;2022-07-12T01:12:41;2.35;;;1.30;;
54177;SDS011;40085;53.004;6.770;2022-07-12T01:15:08;1.33;;;1.02;;
54177;SDS011;40085;53.004;6.770;2022-07-12T01:17:34;2.13;;;1.13;;
54177;SDS011;40085;53.004;6.770;2022-07-12T01:20:02;1.75;;;1.00;;
54177;SDS011;40085;53.004;6.770;2022-07-12T01:22:36;2.22;;;1.23;;
54177;SDS011;40085;53.004;6.770;2022-07-12T01:25:05;2.55;;;1.48;;
54177;SDS011;40085;53.004;6.770;2022-07-12T01:27:32;3.28;;;1.40;;
54177;SDS011;40085;53.004;6.770;2022-07-12T01:29:59;3.25;;;1.98;;
54177;SDS011;40085;53.004;6.770;2022-07-12T01:32:29;3.05;;;1.50;;
54177;SDS011;40085;53.004;6.770;2022-07-12T01:35:03;3.65;;;1.73;;
54177;SDS011;40085;53.004;6.770;2022-07-12T01:37:31;1.88;;;1.00;;
54177;SDS011;40085;53.004;6.770;2022-07-12T01:39:59;2.38;;;1.52;;
54177;SDS011;40085;53.004;6.770;2022-07-12T01:42:27;2.22;;;1.38;;
54177;SDS011;40085;53.004;6.770;2022-07-12T01:44:54;2.50;;;1.40;;
54177;SDS011;40085;53.004;6.770;2022-07-12T01:47:20;3.08;;;1.70;;
54177;SDS011;40085;53.004;6.770;2022-07-12T01:49:47;3.22;;;1.75;;
54177;SDS011;40085;53.004;6.770;2022-07-12T01:52:13;2.08;;;1.40;;
54177;SDS011;40085;53.004;6.770;2022-07-12T01:54:39;2.88;;;1.60;;
54177;SDS011;40085;53.004;6.770;2022-07-12T01:57:05;1.83;;;1.30;;
54177;SDS011;40085;53.004;6.770;2022-07-12T01:59:32;4.22;;;2.08;;
54177;SDS011;40085;53.004;6.770;2022-07-12T02:01:58;3.33;;;1.75;;
54177;SDS011;40085;53.004;6.770;2022-07-12T02:04:24;2.92;;;1.70;;
54177;SDS011;40085;53.004;6.770;2022-07-12T02:06:50;3.28;;;1.52;;
54177;SDS011;40085;53.004;6.770;2022-07-12T02:09:16;1.88;;;1.10;;
54177;SDS011;40085;53.004;6.770;2022-07-12T02:11:42;3.30;;;1.50;;
54177;SDS011;40085;53.004;6.770;2022-07-12T02:14:10;4.40;;;1.67;;
54177;SDS011;40085;53.004;6.770;2022-07-12T02:16:37;2.83;;;1.70;;
54177;SDS011;40085;53.004;6.770;2022-07-12T02:19:03;3.78;;;1.48;;
54177;SDS011;40085;53.004;6.770;2022-07-12T02:21:29;3.03;;;1.55;;
54177;SDS011;40085;53.004;6.770;2022-07-12T02:23:55;1.88;;;1.33;;
54177;SDS011;40085;53.004;6.770;2022-07-12T02:26:21;3.08;;;1.40;;
54177;SDS011;40085;53.004;6.770;2022-07-12T02:28:47;2.10;;;1.10;;
54177;SDS011;40085;53.004;6.770;2022-07-12T02:31:13;2.53;;;1.50;;
54177;SDS011;40085;53.004;6.770;2022-07-12T02:33:38;2.33;;;1.50;;
54177;SDS011;40085;53.004;6.770;2022-07-12T02:36:04;1.58;;;1.10;;
54177;SDS011;40085;53.004;6.770;2022-07-12T02:38:30;2.45;;;1.48;;
54177;SDS011;40085;53.004;6.770;2022-07-12T02:40:56;2.35;;;1.55;;
54177;SDS011;40085;53.004;6.770;2022-07-12T02:43:28;3.70;;;1.90;;
54177;SDS011;40085;53.004;6.770;2022-07-12T02:45:55;4.47;;;1.77;;
54177;SDS011;40085;53.004;6.770;2022-07-12T02:48:37;2.97;;;1.67;;
54177;SDS011;40085;53.004;6.770;2022-07-12T02:51:04;2.00;;;1.27;;
54177;SDS011;40085;53.004;6.770;2022-07-12T02:53:30;2.47;;;1.20;;
54177;SDS011;40085;53.004;6.770;2022-07-12T02:55:58;3.30;;;1.50;;
54177;SDS011;40085;53.004;6.770;2022-07-12T02:58:24;2.55;;;1.27;;
54177;SDS011;40085;53.004;6.770;2022-07-12T03:00:49;3.00;;;1.30;;
54177;SDS011;40085;53.004;6.770;2022-07-12T03:03:15;1.75;;;0.93;;
54177;SDS011;40085;53.004;6.770;2022-07-12T03:05:41;2.30;;;0.98;;
54177;SDS011;40085;53.004;6.770;2022-07-12T03:08:08;1.63;;;1.15;;
54177;SDS011;40085;53.004;6.770;2022-07-12T03:10:34;2.30;;;1.33;;
54177;SDS011;40085;53.004;6.770;2022-07-12T03:13:00;2.85;;;1.30;;
54177;SDS011;40085;53.004;6.770;2022-07-12T03:15:27;1.60;;;1.00;;
54177;SDS011;40085;53.004;6.770;2022-07-12T03:17:53;1.73;;;1.23;;
54177;SDS011;40085;53.004;6.770;2022-07-12T03:20:19;2.20;;;1.25;;
54177;SDS011;40085;53.004;6.770;2022-07-12T03:22:45;1.20;;;0.82;;
54177;SDS011;40085;53.004;6.770;2022-07-12T03:25:14;1.52;;;1.17;;
54177;SDS011;40085;53.004;6.770;2022-07-12T03:27:40;2.38;;;0.93;;
54177;SDS011;40085;53.004;6.770;2022-07-12T03:30:06;1.20;;;0.98;;
54177;SDS011;40085;53.004;6.770;2022-07-12T03:32:33;1.65;;;0.93;;
54177;SDS011;40085;53.004;6.770;2022-07-12T03:34:59;2.38;;;1.40;;
54177;SDS011;40085;53.004;6.770;2022-07-12T03:37:25;2.22;;;0.95;;
54177;SDS011;40085;53.004;6.770;2022-07-12T03:39:50;2.58;;;1.13;;
54177;SDS011;40085;53.004;6.770;2022-07-12T03:42:16;1.13;;;0.80;;
54177;SDS011;40085;53.004;6.770;2022-07-12T03:44:42;2.50;;;1.23;;
54177;SDS011;40085;53.004;6.770;2022-07-12T03:47:08;1.17;;;0.93;;
54177;SDS011;40085;53.004;6.770;2022-07-12T03:49:33;1.40;;;1.00;;
54177;SDS011;40085;53.004;6.770;2022-07-12T03:51:59;1.10;;;0.95;;
54177;SDS011;40085;53.004;6.770;2022-07-12T03:54:25;0.88;;;0.70;;
54177;SDS011;40085;53.004;6.770;2022-07-12T03:56:50;3.05;;;1.20;;
54177;SDS011;40085;53.004;6.770;2022-07-12T03:59:34;2.03;;;0.95;;
54177;SDS011;40085;53.004;6.770;2022-07-12T04:02:00;2.92;;;0.90;;
54177;SDS011;40085;53.004;6.770;2022-07-12T04:04:29;1.85;;;1.10;;
54177;SDS011;40085;53.004;6.770;2022-07-12T04:06:55;1.42;;;0.90;;
54177;SDS011;40085;53.004;6.770;2022-07-12T04:09:20;2.35;;;0.90;;
54177;SDS011;40085;53.004;6.770;2022-07-12T04:11:46;1.42;;;0.93;;
54177;SDS011;40085;53.004;6.770;2022-07-12T04:14:12;1.98;;;1.10;;
54177;SDS011;40085;53.004;6.770;2022-07-12T04:16:38;1.77;;;0.88;;
54177;SDS011;40085;53.004;6.770;2022-07-12T04:19:05;1.70;;;1.10;;
54177;SDS011;40085;53.004;6.770;2022-07-12T04:21:31;2.25;;;1.20;;
54177;SDS011;40085;53.004;6.770;2022-07-12T04:23:57;1.48;;;1.08;;
54177;SDS011;40085;53.004;6.770;2022-07-12T04:26:23;4.90;;;2.25;;
54177;SDS011;40085;53.004;6.770;2022-07-12T04:28:48;1.13;;;0.80;;
54177;SDS011;40085;53.004;6.770;2022-07-12T04:31:14;3.90;;;1.40;;
54177;SDS011;40085;53.004;6.770;2022-07-12T04:33:40;2.05;;;1.08;;
54177;SDS011;40085;53.004;6.770;2022-07-12T04:36:05;1.50;;;0.80;;
54177;SDS011;40085;53.004;6.770;2022-07-12T04:38:31;1.63;;;0.80;;
54177;SDS011;40085;53.004;6.770;2022-07-12T04:40:57;1.90;;;1.13;;
54177;SDS011;40085;53.004;6.770;2022-07-12T04:43:23;1.73;;;1.02;;
54177;SDS011;40085;53.004;6.770;2022-07-12T04:45:49;3.40;;;1.75;;
54177;SDS011;40085;53.004;6.770;2022-07-12T04:48:18;1.67;;;1.33;;
54177;SDS011;40085;53.004;6.770;2022-07-12T04:50:44;2.42;;;1.40;;
54177;SDS011;40085;53.004;6.770;2022-07-12T04:53:10;1.83;;;1.08;;
54177;SDS011;40085;53.004;6.770;2022-07-12T04:55:36;2.03;;;1.17;;
54177;SDS011;40085;53.004;6.770;2022-07-12T04:58:01;2.65;;;1.42;;
54177;SDS011;40085;53.004;6.770;2022-07-12T05:00:27;2.97;;;1.35;;
54177;SDS011;40085;53.004;6.770;2022-07-12T05:02:53;2.03;;;1.48;;
54177;SDS011;40085;53.004;6.770;2022-07-12T05:05:19;3.53;;;2.08;;
54177;SDS011;40085;53.004;6.770;2022-07-12T05:07:44;3.15;;;1.88;;
54177;SDS011;40085;53.004;6.770;2022-07-12T05:10:10;2.10;;;1.27;;
54177;SDS011;40085;53.004;6.770;2022-07-12T05:12:36;3.63;;;1.63;;
54177;SDS011;40085;53.004;6.770;2022-07-12T05:15:03;2.88;;;1.45;;
54177;SDS011;40085;53.004;6.770;2022-07-12T05:17:29;2.42;;;1.60;;
54177;SDS011;40085;53.004;6.770;2022-07-12T05:19:55;4.30;;;1.48;;
54177;SDS011;40085;53.004;6.770;2022-07-12T05:22:20;4.07;;;1.90;;
54177;SDS011;40085;53.004;6.770;2022-07-12T05:24:46;2.53;;;1.52;;
54177;SDS011;40085;53.004;6.770;2022-07-12T05:27:12;2.75;;;1.85;;
54177;SDS011;40085;53.004;6.770;2022-07-12T05:29:37;2.67;;;1.55;;
54177;SDS011;40085;53.004;6.770;2022-07-12T05:32:03;1.42;;;1.02;;
54177;SDS011;40085;53.004;6.770;2022-07-12T05:34:30;2.55;;;1.42;;
54177;SDS011;40085;53.004;6.770;2022-07-12T05:36:56;1.75;;;1.27;;
54177;SDS011;40085;53.004;6.770;2022-07-12T05:39:21;2.75;;;1.50;;
54177;SDS011;40085;53.004;6.770;2022-07-12T05:41:47;2.75;;;1.83;;
54177;SDS011;40085;53.004;6.770;2022-07-12T05:44:13;2.65;;;1.45;;
54177;SDS011;40085;53.004;6.770;2022-07-12T05:46:42;1.73;;;1.20;;
54177;SDS011;40085;53.004;6.770;2022-07-12T05:49:07;2.88;;;1.25;;
54177;SDS011;40085;53.004;6.770;2022-07-12T05:51:33;3.42;;;1.90;;
54177;SDS011;40085;53.004;6.770;2022-07-12T05:54:17;3.90;;;2.03;;
54177;SDS011;40085;53.004;6.770;2022-07-12T05:56:43;2.92;;;1.85;;
54177;SDS011;40085;53.004;6.770;2022-07-12T05:59:09;4.50;;;2.58;;
54177;SDS011;40085;53.004;6.770;2022-07-12T06:01:35;2.83;;;1.98;;
54177;SDS011;40085;53.004;6.770;2022-07-12T06:04:01;2.35;;;1.40;;
54177;SDS011;40085;53.004;6.770;2022-07-12T06:06:27;4.00;;;1.77;;
54177;SDS011;40085;53.004;6.770;2022-07-12T06:08:53;3.30;;;2.00;;
54177;SDS011;40085;53.004;6.770;2022-07-12T06:11:19;2.58;;;1.75;;
54177;SDS011;40085;53.004;6.770;2022-07-12T06:13:45;4.10;;;2.00;;
54177;SDS011;40085;53.004;6.770;2022-07-12T06:16:12;3.17;;;2.10;;
54177;SDS011;40085;53.004;6.770;2022-07-12T06:18:38;3.55;;;2.15;;
54177;SDS011;40085;53.004;6.770;2022-07-12T06:21:04;5.15;;;2.60;;
54177;SDS011;40085;53.004;6.770;2022-07-12T06:23:30;4.53;;;2.20;;
54177;SDS011;40085;53.004;6.770;2022-07-12T06:25:56;3.50;;;2.40;;
54177;SDS011;40085;53.004;6.770;2022-07-12T06:28:21;3.50;;;1.98;;
54177;SDS011;40085;53.004;6.770;2022-07-12T06:30:47;3.33;;;2.30;;
54177;SDS011;40085;53.004;6.770;2022-07-12T06:33:14;4.43;;;2.35;;
54177;SDS011;40085;53.004;6.770;2022-07-12T06:35:40;3.97;;;1.80;;
54177;SDS011;40085;53.004;6.770;2022-07-12T06:38:06;3.55;;;1.90;;
54177;SDS011;40085;53.004;6.770;2022-07-12T06:40:32;3.55;;;2.20;;
54177;SDS011;40085;53.004;6.770;2022-07-12T06:42:58;3.08;;;1.95;;
54177;SDS011;40085;53.004;6.770;2022-07-12T06:45:24;4.78;;;1.90;;
54177;SDS011;40085;53.004;6.770;2022-07-12T06:47:51;3.25;;;1.75;;
54177;SDS011;40085;53.004;6.770;2022-07-12T06:50:17;3.45;;;1.80;;
54177;SDS011;40085;53.004;6.770;2022-07-12T06:52:43;4.78;;;1.92;;
54177;SDS011;40085;53.004;6.770;2022-07-12T06:55:09;2.95;;;1.83;;
54177;SDS011;40085;53.004;6.770;2022-07-12T06:57:35;3.15;;;1.90;;
54177;SDS011;40085;53.004;6.770;2022-07-12T07:00:03;3.65;;;2.33;;
54177;SDS011;40085;53.004;6.770;2022-07-12T07:02:29;3.75;;;2.15;;
54177;SDS011;40085;53.004;6.770;2022-07-12T07:04:55;3.42;;;1.83;;
54177;SDS011;40085;53.004;6.770;2022-07-12T07:07:22;3.17;;;1.70;;
54177;SDS011;40085;53.004;6.770;2022-07-12T07:09:48;2.90;;;1.85;;
54177;SDS011;40085;53.004;6.770;2022-07-12T07:12:14;4.07;;;2.03;;
54177;SDS011;40085;53.004;6.770;2022-07-12T07:14:40;1.90;;;1.30;;
54177;SDS011;40085;53.004;6.770;2022-07-12T07:17:06;3.55;;;2.08;;
54177;SDS011;40085;53.004;6.770;2022-07-12T07:19:33;2.67;;;1.85;;
54177;SDS011;40085;53.004;6.770;2022-07-12T07:21:59;2.67;;;1.77;;
54177;SDS011;40085;53.004;6.770;2022-07-12T07:24:25;2.03;;;1.40;;
54177;SDS011;40085;53.004;6.770;2022-07-12T07:26:51;2.63;;;1.50;;
54177;SDS011;40085;53.004;6.770;2022-07-12T07:29:17;3.55;;;1.70;;
54177;SDS011;40085;53.004;6.770;2022-07-12T07:32:01;3.38;;;1.65;;
54177;SDS011;40085;53.004;6.770;2022-07-12T07:34:27;4.07;;;1.77;;
54177;SDS011;40085;53.004;6.770;2022-07-12T07:36:52;3.40;;;1.77;;
54177;SDS011;40085;53.004;6.770;2022-07-12T07:39:18;2.67;;;1.50;;
54177;SDS011;40085;53.004;6.770;2022-07-12T07:41:44;2.88;;;1.55;;
54177;SDS011;40085;53.004;6.770;2022-07-12T07:44:10;2.38;;;1.60;;
54177;SDS011;40085;53.004;6.770;2022-07-12T07:46:36;3.10;;;1.55;;
54177;SDS011;40085;53.004;6.770;2022-07-12T07:49:02;2.42;;;1.40;;
54177;SDS011;40085;53.004;6.770;2022-07-12T07:51:28;2.38;;;1.75;;
54177;SDS011;40085;53.004;6.770;2022-07-12T07:53:54;2.13;;;1.55;;
54177;SDS011;40085;53.004;6.770;2022-07-12T07:56:20;2.20;;;1.42;;
54177;SDS011;40085;53.004;6.770;2022-07-12T07:58:46;2.90;;;1.55;;
54177;SDS011;40085;53.004;6.770;2022-07-12T08:01:12;2.25;;;1.20;;
54177;SDS011;40085;53.004;6.770;2022-07-12T08:03:38;4.50;;;1.60;;
54177;SDS011;40085;53.004;6.770;2022-07-12T08:06:04;3.55;;;1.88;;
54177;SDS011;40085;53.004;6.770;2022-07-12T08:08:30;2.95;;;1.63;;
54177;SDS011;40085;53.004;6.770;2022-07-12T08:10:56;3.03;;;1.85;;
54177;SDS011;40085;53.004;6.770;2022-07-12T08:13:22;3.15;;;1.73;;
54177;SDS011;40085;53.004;6.770;2022-07-12T08:15:49;3.50;;;2.00;;
54177;SDS011;40085;53.004;6.770;2022-07-12T08:18:15;2.47;;;1.70;;
54177;SDS011;40085;53.004;6.770;2022-07-12T08:20:40;2.30;;;1.25;;
54177;SDS011;40085;53.004;6.770;2022-07-12T08:23:07;1.90;;;1.10;;
54177;SDS011;40085;53.004;6.770;2022-07-12T08:25:33;2.67;;;1.83;;
54177;SDS011;40085;53.004;6.770;2022-07-12T08:27:59;4.03;;;1.98;;
54177;SDS011;40085;53.004;6.770;2022-07-12T08:30:25;2.92;;;1.75;;
54177;SDS011;40085;53.004;6.770;2022-07-12T08:32:51;1.98;;;1.40;;
54177;SDS011;40085;53.004;6.770;2022-07-12T08:35:18;3.55;;;1.55;;
54177;SDS011;40085;53.004;6.770;2022-07-12T08:37:43;2.95;;;1.67;;
54177;SDS011;40085;53.004;6.770;2022-07-12T08:40:09;4.22;;;1.38;;
54177;SDS011;40085;53.004;6.770;2022-07-12T08:42:35;1.77;;;1.00;;
54177;SDS011;40085;53.004;6.770;2022-07-12T08:45:05;2.43;;;1.20;;
54177;SDS011;40085;53.004;6.770;2022-07-12T08:47:31;1.27;;;1.08;;
54177;SDS011;40085;53.004;6.770;2022-07-12T08:52:36;2.17;;;1.58;;
54177;SDS011;40085;53.004;6.770;2022-07-12T08:55:15;2.45;;;1.30;;
54177;SDS011;40085;53.004;6.770;2022-07-12T08:57:43;2.20;;;1.15;;
54177;SDS011;40085;53.004;6.770;2022-07-12T09:00:09;2.08;;;1.17;;
54177;SDS011;40085;53.004;6.770;2022-07-12T09:02:42;2.08;;;1.15;;
54177;SDS011;40085;53.004;6.770;2022-07-12T09:05:12;1.35;;;1.00;;
54177;SDS011;40085;53.004;6.770;2022-07-12T09:07:39;1.55;;;1.20;;
54177;SDS011;40085;53.004;6.770;2022-07-12T09:10:05;1.52;;;1.20;;
54177;SDS011;40085;53.004;6.770;2022-07-12T09:12:33;1.15;;;0.90;;
54177;SDS011;40085;53.004;6.770;2022-07-12T09:20:20;1.25;;;0.77;;
54177;SDS011;40085;53.004;6.770;2022-07-12T09:22:53;1.70;;;0.90;;
54177;SDS011;40085;53.004;6.770;2022-07-12T09:25:20;0.80;;;0.68;;
54177;SDS011;40085;53.004;6.770;2022-07-12T09:27:47;1.17;;;0.80;;
54177;SDS011;40085;53.004;6.770;2022-07-12T09:30:17;1.13;;;0.70;;
54177;SDS011;40085;53.004;6.770;2022-07-12T09:32:50;1.58;;;1.00;;
54177;SDS011;40085;53.004;6.770;2022-07-12T09:35:36;0.70;;;0.70;;
54177;SDS011;40085;53.004;6.770;2022-07-12T09:38:20;0.75;;;0.65;;
54177;SDS011;40085;53.004;6.770;2022-07-12T09:40:46;1.17;;;0.80;;
54177;SDS011;40085;53.004;6.770;2022-07-12T09:43:13;1.48;;;1.08;;
54177;SDS011;40085;53.004;6.770;2022-07-12T09:45:39;0.88;;;0.70;;
54177;SDS011;40085;53.004;6.770;2022-07-12T09:48:07;1.10;;;0.80;;
54177;SDS011;40085;53.004;6.770;2022-07-12T09:50:34;1.88;;;0.90;;
54177;SDS011;40085;53.004;6.770;2022-07-12T09:53:00;1.23;;;0.75;;
54177;SDS011;40085;53.004;6.770;2022-07-12T09:55:29;0.90;;;0.80;;
54177;SDS011;40085;53.004;6.770;2022-07-12T09:57:57;1.50;;;0.80;;
54177;SDS011;40085;53.004;6.770;2022-07-12T10:00:27;1.23;;;0.82;;
54177;SDS011;40085;53.004;6.770;2022-07-12T10:02:53;0.93;;;0.77;;
54177;SDS011;40085;53.004;6.770;2022-07-12T10:05:21;0.93;;;0.80;;
54177;SDS011;40085;53.004;6.770;2022-07-12T10:07:50;0.75;;;0.70;;
54177;SDS011;40085;53.004;6.770;2022-07-12T10:10:16;1.17;;;0.82;;
54177;SDS011;40085;53.004;6.770;2022-07-12T10:12:42;1.92;;;0.88;;
54177;SDS011;40085;53.004;6.770;2022-07-12T10:15:16;1.10;;;0.90;;
54177;SDS011;40085;53.004;6.770;2022-07-12T10:17:52;1.27;;;0.75;;
54177;SDS011;40085;53.004;6.770;2022-07-12T10:20:21;1.02;;;0.93;;
54177;SDS011;40085;53.004;6.770;2022-07-12T10:22:54;0.80;;;0.63;;
54177;SDS011;40085;53.004;6.770;2022-07-12T10:25:27;3.53;;;0.80;;
54177;SDS011;40085;53.004;6.770;2022-07-12T10:27:57;0.70;;;0.70;;
54177;SDS011;40085;53.004;6.770;2022-07-12T10:30:26;1.40;;;0.98;;
54177;SDS011;40085;53.004;6.770;2022-07-12T10:32:53;1.17;;;0.90;;
54177;SDS011;40085;53.004;6.770;2022-07-12T10:35:23;0.95;;;0.77;;
54177;SDS011;40085;53.004;6.770;2022-07-12T10:40:39;1.48;;;0.90;;
54177;SDS011;40085;53.004;6.770;2022-07-12T10:45:39;0.73;;;0.60;;
54177;SDS011;40085;53.004;6.770;2022-07-12T10:48:18;0.80;;;0.60;;
54177;SDS011;40085;53.004;6.770;2022-07-12T10:58:38;1.35;;;0.93;;
54177;SDS011;40085;53.004;6.770;2022-07-12T11:01:04;0.93;;;0.65;;
54177;SDS011;40085;53.004;6.770;2022-07-12T11:03:31;1.90;;;0.70;;
54177;SDS011;40085;53.004;6.770;2022-07-12T11:06:21;0.55;;;0.55;;
54177;SDS011;40085;53.004;6.770;2022-07-12T11:08:56;1.67;;;0.60;;
54177;SDS011;40085;53.004;6.770;2022-07-12T11:11:23;0.60;;;0.60;;
54177;SDS011;40085;53.004;6.770;2022-07-12T11:13:51;0.57;;;0.57;;
54177;SDS011;40085;53.004;6.770;2022-07-12T11:16:16;0.52;;;0.50;;
54177;SDS011;40085;53.004;6.770;2022-07-12T11:18:43;1.40;;;0.70;;
54177;SDS011;40085;53.004;6.770;2022-07-12T11:21:09;1.23;;;0.95;;
54177;SDS011;40085;53.004;6.770;2022-07-12T11:23:35;0.88;;;0.85;;
54177;SDS011;40085;53.004;6.770;2022-07-12T11:26:01;1.23;;;0.77;;
54177;SDS011;40085;53.004;6.770;2022-07-12T11:28:29;0.60;;;0.60;;
54177;SDS011;40085;53.004;6.770;2022-07-12T11:31:03;0.75;;;0.68;;
54177;SDS011;40085;53.004;6.770;2022-07-12T11:33:31;1.42;;;0.77;;
54177;SDS011;40085;53.004;6.770;2022-07-12T11:36:05;0.70;;;0.70;;
54177;SDS011;40085;53.004;6.770;2022-07-12T11:38:32;1.80;;;0.75;;
54177;SDS011;40085;53.004;6.770;2022-07-12T11:41:00;1.88;;;0.90;;
54177;SDS011;40085;53.004;6.770;2022-07-12T11:43:29;0.70;;;0.70;;
54177;SDS011;40085;53.004;6.770;2022-07-12T11:45:55;1.02;;;0.70;;
54177;SDS011;40085;53.004;6.770;2022-07-12T11:48:22;0.80;;;0.80;;
54177;SDS011;40085;53.004;6.770;2022-07-12T11:50:52;1.00;;;0.70;;
54177;SDS011;40085;53.004;6.770;2022-07-12T11:55:45;0.70;;;0.70;;
54177;SDS011;40085;53.004;6.770;2022-07-12T11:58:15;0.82;;;0.80;;
54177;SDS011;40085;53.004;6.770;2022-07-12T12:00:42;1.30;;;0.60;;
54177;SDS011;40085;53.004;6.770;2022-07-12T12:03:09;0.68;;;0.68;;
54177;SDS011;40085;53.004;6.770;2022-07-12T12:05:36;0.63;;;0.63;;
54177;SDS011;40085;53.004;6.770;2022-07-12T12:08:03;0.80;;;0.70;;
54177;SDS011;40085;53.004;6.770;2022-07-12T12:10:30;1.15;;;0.80;;
54177;SDS011;40085;53.004;6.770;2022-07-12T12:12:56;0.45;;;0.40;;
54177;SDS011;40085;53.004;6.770;2022-07-12T12:15:23;0.77;;;0.77;;
54177;SDS011;40085;53.004;6.770;2022-07-12T12:17:54;1.17;;;0.90;;
54177;SDS011;40085;53.004;6.770;2022-07-12T12:20:23;0.65;;;0.65;;
54177;SDS011;40085;53.004;6.770;2022-07-12T12:23:06;0.80;;;0.80;;
54177;SDS011;40085;53.004;6.770;2022-07-12T12:25:42;0.60;;;0.60;;
54177;SDS011;40085;53.004;6.770;2022-07-12T12:28:08;1.80;;;0.95;;
54177;SDS011;40085;53.004;6.770;2022-07-12T12:30:34;1.00;;;0.90;;
54177;SDS011;40085;53.004;6.770;2022-07-12T12:33:04;0.80;;;0.80;;
54177;SDS011;40085;53.004;6.770;2022-07-12T12:35:33;1.08;;;0.70;;
54177;SDS011;40085;53.004;6.770;2022-07-12T12:38:10;0.55;;;0.55;;
54177;SDS011;40085;53.004;6.770;2022-07-12T12:40:37;1.30;;;1.00;;
54177;SDS011;40085;53.004;6.770;2022-07-12T12:43:08;1.77;;;0.80;;
54177;SDS011;40085;53.004;6.770;2022-07-12T12:45:48;3.08;;;0.60;;
54177;SDS011;40085;53.004;6.770;2022-07-12T12:48:24;0.60;;;0.60;;
54177;SDS011;40085;53.004;6.770;2022-07-12T12:50:51;0.70;;;0.70;;
54177;SDS011;40085;53.004;6.770;2022-07-12T12:53:31;0.55;;;0.55;;
54177;SDS011;40085;53.004;6.770;2022-07-12T12:55:57;0.60;;;0.60;;
54177;SDS011;40085;53.004;6.770;2022-07-12T12:58:23;0.50;;;0.50;;
54177;SDS011;40085;53.004;6.770;2022-07-12T13:00:50;0.60;;;0.50;;
54177;SDS011;40085;53.004;6.770;2022-07-12T13:03:19;0.75;;;0.40;;
54177;SDS011;40085;53.004;6.770;2022-07-12T13:05:46;1.77;;;0.47;;
54177;SDS011;40085;53.004;6.770;2022-07-12T13:08:14;0.40;;;0.40;;
54177;SDS011;40085;53.004;6.770;2022-07-12T13:10:41;0.50;;;0.50;;
54177;SDS011;40085;53.004;6.770;2022-07-12T13:13:09;0.40;;;0.40;;
54177;SDS011;40085;53.004;6.770;2022-07-12T13:15:36;0.55;;;0.50;;
54177;SDS011;40085;53.004;6.770;2022-07-12T13:18:03;0.50;;;0.45;;
54177;SDS011;40085;53.004;6.770;2022-07-12T13:20:29;1.75;;;0.70;;
54177;SDS011;40085;53.004;6.770;2022-07-12T13:22:56;0.85;;;0.52;;
54177;SDS011;40085;53.004;6.770;2022-07-12T13:25:22;0.50;;;0.50;;
54177;SDS011;40085;53.004;6.770;2022-07-12T13:27:49;1.55;;;0.60;;
54177;SDS011;40085;53.004;6.770;2022-07-12T13:30:16;0.55;;;0.50;;
54177;SDS011;40085;53.004;6.770;2022-07-12T13:32:42;0.52;;;0.52;;
54177;SDS011;40085;53.004;6.770;2022-07-12T13:35:09;0.60;;;0.50;;
54177;SDS011;40085;53.004;6.770;2022-07-12T13:37:36;0.57;;;0.50;;
54177;SDS011;40085;53.004;6.770;2022-07-12T13:40:03;0.40;;;0.40;;
54177;SDS011;40085;53.004;6.770;2022-07-12T13:42:47;0.75;;;0.65;;
54177;SDS011;40085;53.004;6.770;2022-07-12T13:45:17;0.55;;;0.43;;
54177;SDS011;40085;53.004;6.770;2022-07-12T13:47:48;0.90;;;0.50;;
54177;SDS011;40085;53.004;6.770;2022-07-12T13:50:16;0.50;;;0.50;;
54177;SDS011;40085;53.004;6.770;2022-07-12T13:52:44;0.73;;;0.60;;
54177;SDS011;40085;53.004;6.770;2022-07-12T13:55:11;0.43;;;0.43;;
54177;SDS011;40085;53.004;6.770;2022-07-12T13:57:39;0.47;;;0.43;;
54177;SDS011;40085;53.004;6.770;2022-07-12T14:00:05;0.75;;;0.60;;
54177;SDS011;40085;53.004;6.770;2022-07-12T14:02:37;0.60;;;0.50;;
54177;SDS011;40085;53.004;6.770;2022-07-12T14:05:04;0.75;;;0.60;;
54177;SDS011;40085;53.004;6.770;2022-07-12T14:07:30;0.43;;;0.40;;
54177;SDS011;40085;53.004;6.770;2022-07-12T14:09:57;0.55;;;0.30;;
54177;SDS011;40085;53.004;6.770;2022-07-12T14:12:23;3.38;;;0.60;;
54177;SDS011;40085;53.004;6.770;2022-07-12T14:14:49;0.57;;;0.57;;
54177;SDS011;40085;53.004;6.770;2022-07-12T14:17:33;0.68;;;0.40;;
54177;SDS011;40085;53.004;6.770;2022-07-12T14:19:59;0.63;;;0.57;;
54177;SDS011;40085;53.004;6.770;2022-07-12T14:22:26;0.47;;;0.30;;
54177;SDS011;40085;53.004;6.770;2022-07-12T14:24:54;0.60;;;0.60;;
54177;SDS011;40085;53.004;6.770;2022-07-12T14:27:20;0.40;;;0.40;;
54177;SDS011;40085;53.004;6.770;2022-07-12T14:29:46;0.47;;;0.47;;
54177;SDS011;40085;53.004;6.770;2022-07-12T14:32:12;0.60;;;0.60;;
54177;SDS011;40085;53.004;6.770;2022-07-12T14:34:38;0.43;;;0.40;;
54177;SDS011;40085;53.004;6.770;2022-07-12T14:37:03;0.50;;;0.50;;
54177;SDS011;40085;53.004;6.770;2022-07-12T14:39:29;0.77;;;0.60;;
54177;SDS011;40085;53.004;6.770;2022-07-12T14:41:55;2.60;;;0.60;;
54177;SDS011;40085;53.004;6.770;2022-07-12T14:44:21;0.95;;;0.60;;
54177;SDS011;40085;53.004;6.770;2022-07-12T14:46:47;0.43;;;0.38;;
54177;SDS011;40085;53.004;6.770;2022-07-12T14:49:12;0.47;;;0.47;;
54177;SDS011;40085;53.004;6.770;2022-07-12T14:51:38;0.60;;;0.60;;
54177;SDS011;40085;53.004;6.770;2022-07-12T14:54:04;0.80;;;0.60;;
54177;SDS011;40085;53.004;6.770;2022-07-12T14:56:29;0.65;;;0.50;;
54177;SDS011;40085;53.004;6.770;2022-07-12T14:58:55;0.50;;;0.50;;
54177;SDS011;40085;53.004;6.770;2022-07-12T15:01:21;0.60;;;0.50;;
54177;SDS011;40085;53.004;6.770;2022-07-12T15:03:46;1.27;;;0.52;;
54177;SDS011;40085;53.004;6.770;2022-07-12T15:06:12;0.60;;;0.50;;
54177;SDS011;40085;53.004;6.770;2022-07-12T15:08:38;0.45;;;0.45;;
54177;SDS011;40085;53.004;6.770;2022-07-12T15:11:03;0.40;;;0.40;;
54177;SDS011;40085;53.004;6.770;2022-07-12T15:13:29;0.50;;;0.50;;